Latest Weather Observations for Cape Borda

IDS60801

Issued at 5:35 pm CST Saturday 30 August 2014 (issued every 30 minutes, with the page automatically refreshed every 10 minutes)

About weather observations | Map of weather stations | Latest weather observations for SA | Other Formats
Station Details ID: 022823 Name: CAPE BORDA Lat: -35.75 Lon: 136.60 Height: 158.0 m
Data from the previous 72 hours. | See also: Recent months at Cape Borda
Date/Time
CST
Temp
°C
App
Temp
°C
Dew
Point
Rel
Hum
%
Delta-T
°C
Wind Press
QNH
hPa
Press
MSL
hPa
Rain
since 9 am
mm
Dir
 
Spd
km/h
Gust
km/h
Spd
kts
Gust
kts
30/05:30pm 16.2 11.3 5.1 47 5.3 NE 20 26 11 14 1016.7 - 0.0
30/05:00pm 16.0 11.6 6.4 53 4.7 NE 19 30 10 16 1017.1 - 0.0
30/04:30pm 16.0 11.9 7.7 58 4.2 NE 19 24 10 13 1017.1 - 0.0
30/04:00pm 17.3 12.9 7.6 53 4.9 NE 20 28 11 15 1017.2 - 0.0
30/03:30pm 17.0 12.9 8.5 57 4.4 NE 20 28 11 15 1017.5 - 0.0
30/03:00pm 16.4 12.5 9.5 63 3.6 NE 20 28 11 15 1017.8 1018.0 0.0
30/02:30pm 17.0 12.3 9.4 61 4.0 NE 24 32 13 17 1018.0 - 0.0
30/02:00pm 17.6 13.9 10.1 61 4.0 NE 20 30 11 16 1018.6 - 0.0
30/01:30pm 17.2 13.6 10.7 65 3.5 NNE 20 32 11 17 1019.1 - 0.0
30/01:00pm 17.0 12.9 10.2 64 3.6 NNE 22 32 12 17 1019.4 - 0.0
30/12:30pm 17.3 13.0 10.6 64 3.6 NE 24 32 13 17 1019.8 - 0.0
30/12:00pm 16.8 12.7 11.3 70 3.0 NE 24 32 13 17 1020.2 1020.4 0.0
30/11:30am 16.8 12.6 11.1 69 3.1 NNE 24 35 13 19 1020.8 - 0.0
30/11:00am 16.8 12.7 11.3 70 3.0 NNE 24 35 13 19 1020.9 - 0.0
30/10:30am 16.5 12.8 11.5 72 2.7 NE 22 32 12 17 1021.4 - 0.0
30/10:00am 16.8 12.8 10.6 67 3.3 NE 22 32 12 17 1021.5 - 0.0
30/09:30am 16.5 12.4 10.1 66 3.4 NNE 22 32 12 17 1021.6 - 0.0
30/09:00am 15.5 11.8 10.2 70 2.8 NE 20 28 11 15 1021.8 1022.0 0.0
30/08:30am 15.5 11.9 10.4 71 2.7 NE 20 30 11 16 1021.9 - 0.0
30/08:00am 14.4 10.8 10.4 77 2.1 NE 20 28 11 15 1021.7 - 0.0
30/07:30am 14.0 10.4 10.4 79 1.9 NE 20 26 11 14 1021.5 - 0.0
30/07:00am 13.6 9.4 9.7 77 2.0 NE 22 30 12 16 1021.2 - 0.0
30/06:30am 13.3 9.5 9.8 79 1.8 NE 20 30 11 16 1021.2 - 0.0
30/06:00am 13.2 9.5 10.1 81 1.6 NE 20 28 11 15 1021.0 1021.1 0.0
30/05:30am 13.2 9.5 10.3 82 1.5 NE 20 28 11 15 1021.0 - 0.0
30/05:00am 13.2 9.5 10.3 82 1.5 ENE 20 28 11 15 1021.1 - 0.0
30/04:30am 13.1 9.4 10.2 82 1.5 ENE 20 24 11 13 1021.4 - 0.0
30/04:00am 12.9 9.4 10.2 84 1.4 ENE 19 24 10 13 1021.7 - 0.0
30/03:30am 13.0 9.5 10.3 84 1.4 ENE 19 24 10 13 1021.9 - 0.0
30/03:00am 13.3 9.8 10.2 81 1.6 ENE 19 22 10 12 1022.2 1022.4 0.0
30/02:30am 13.9 9.6 9.4 74 2.3 ENE 22 33 12 18 1022.4 - 0.0
30/02:00am 14.2 9.5 9.1 71 2.6 ENE 24 30 13 16 1022.5 - 0.0
30/01:30am 14.4 9.4 8.2 66 3.1 ENE 24 32 13 17 1022.7 - 0.0
30/01:00am 14.6 9.5 7.5 62 3.5 ENE 24 33 13 18 1022.6 - 0.0
30/12:30am 14.9 10.0 7.0 59 3.9 ENE 22 30 12 16 1022.7 - 0.0
30/12:00am 15.7 10.0 4.7 48 5.2 ENE 24 35 13 19 1022.9 1023.1 0.0
 
Date/Time
CST
Temp
°C
App
Temp
°C
Dew
Point
Rel
Hum
%
Delta-T
°C
Wind Press
QNH
hPa
Press
MSL
hPa
Rain
since 9 am
mm
Dir
 
Spd
km/h
Gust
km/h
Spd
kts
Gust
kts
29/11:30pm 15.4 10.4 6.4 55 4.4 ENE 22 30 12 16 1023.0 - 0.0
29/11:00pm 15.8 10.7 5.9 51 4.8 ENE 22 30 12 16 1023.3 - 0.0
29/10:30pm 16.1 11.4 6.0 51 4.9 ENE 20 28 11 15 1023.5 - 0.0
29/10:00pm 16.0 11.2 5.6 50 5.0 ENE 20 28 11 15 1023.6 - 0.0
29/09:30pm 15.7 10.9 5.5 50 4.9 E 20 28 11 15 1023.9 - 0.0
29/09:00pm 15.6 10.7 5.1 49 5.0 E 20 26 11 14 1024.1 1024.3 0.0
29/08:30pm 14.3 10.0 6.9 61 3.6 E 19 26 10 14 1024.1 - 0.0
29/08:00pm 14.3 11.0 9.4 72 2.5 E 17 22 9 12 1024.1 - 0.0
29/07:30pm 14.8 11.0 8.9 68 3.0 E 19 24 10 13 1024.0 - 0.0
29/07:00pm 15.2 11.0 7.6 60 3.8 E 19 22 10 12 1023.9 - 0.0
29/06:30pm 14.9 11.1 7.4 61 3.7 E 17 20 9 11 1023.8 - 0.0
29/06:00pm 15.1 11.3 5.7 53 4.5 ENE 15 19 8 10 1023.8 1024.0 0.0
29/05:30pm 16.8 12.6 4.0 42 6.0 ENE 15 17 8 9 1023.9 - 0.0
29/05:00pm 17.7 14.1 4.8 42 6.2 ENE 13 19 7 10 1024.0 - 0.0
29/04:30pm 18.3 14.1 3.6 37 6.9 ENE 15 20 8 11 1024.3 - 0.0
29/04:00pm 18.7 15.0 4.5 39 6.8 ENE 13 19 7 10 1024.4 - 0.0
29/03:30pm 18.6 14.2 5.0 40 6.6 ENE 17 24 9 13 1024.7 - 0.0
29/03:00pm 18.6 14.5 6.3 44 6.1 ENE 17 22 9 12 1024.7 1024.9 0.0
29/02:30pm 18.5 15.0 7.0 47 5.8 ENE 15 20 8 11 1024.9 - 0.0
29/02:00pm 18.3 14.9 7.7 50 5.4 NNE 15 22 8 12 1025.2 - 0.0
29/01:30pm 18.0 13.9 7.8 51 5.2 ENE 19 22 10 12 1025.5 - 0.0
29/01:00pm 18.1 14.4 7.9 51 5.2 NNE 17 24 9 13 1025.9 - 0.0
29/12:30pm 17.7 14.1 8.4 54 4.8 NE 17 24 9 13 1026.5 - 0.0
29/12:00pm 17.2 13.1 8.7 57 4.4 ENE 20 26 11 14 1026.9 1027.2 0.0
29/11:30am 17.1 13.0 8.8 58 4.3 ENE 20 28 11 15 1027.1 - 0.0
29/11:00am 17.0 12.6 8.9 59 4.2 ENE 22 28 12 15 1027.5 - 0.0
29/10:30am 16.9 12.3 8.3 57 4.4 ENE 22 30 12 16 1027.5 - 0.0
29/10:00am 17.0 12.8 8.2 56 4.5 ENE 20 30 11 16 1027.6 - 0.0
29/09:30am 16.9 12.1 7.3 53 4.8 ENE 22 32 12 17 1027.7 - 0.0
29/09:00am 16.7 11.9 7.5 54 4.6 ENE 22 28 12 15 1027.8 1028.0 0.0
29/08:30am 16.5 11.7 7.5 55 4.5 ENE 22 28 12 15 1027.8 - 0.0
29/08:00am 15.8 11.4 7.6 58 4.1 ENE 20 30 11 16 1027.5 - 0.0
29/07:30am 14.9 10.7 7.4 61 3.7 ENE 19 24 10 13 1027.3 - 0.0
29/07:00am 14.5 10.0 6.9 60 3.7 ENE 20 28 11 15 1026.9 - 0.0
29/06:30am 14.8 10.1 6.1 56 4.2 ENE 20 26 11 14 1026.7 - 0.0
29/06:00am 14.5 9.8 6.2 57 4.0 ENE 20 26 11 14 1026.3 1026.5 0.0
29/05:30am 14.5 9.9 6.4 58 3.9 ENE 20 24 11 13 1026.3 - 0.0
29/05:00am 14.3 9.9 7.4 63 3.4 ENE 20 26 11 14 1026.1 - 0.0
29/04:30am 13.8 9.3 6.8 62 3.4 ENE 20 24 11 13 1026.0 - 0.0
29/04:00am 13.9 9.3 6.7 62 3.5 ENE 20 26 11 14 1025.8 - 0.0
29/03:30am 13.8 9.5 7.7 66 3.0 ENE 20 26 11 14 1026.0 - 0.0
29/03:00am 14.1 9.7 7.6 65 3.2 ENE 20 26 11 14 1026.2 1026.4 0.0
29/02:30am 14.3 9.6 7.6 64 3.3 ENE 22 28 12 15 1026.4 - 0.0
29/02:00am 14.7 9.8 6.9 59 3.8 ENE 22 28 12 15 1026.8 - 0.0
29/01:30am 14.5 9.6 6.9 60 3.7 ENE 22 28 12 15 1027.0 - 0.0
29/01:00am 14.5 9.6 6.9 60 3.7 ENE 22 26 12 14 1027.1 - 0.0
29/12:30am 14.6 10.0 6.6 58 3.9 ENE 20 26 11 14 1027.1 - 0.0
29/12:00am 14.4 9.7 6.1 57 4.0 ENE 20 24 11 13 1027.1 1027.4 0.0
 
Date/Time
CST
Temp
°C
App
Temp
°C
Dew
Point
Rel
Hum
%
Delta-T
°C
Wind Press
QNH
hPa
Press
MSL
hPa
Rain
since 9 am
mm
Dir
 
Spd
km/h
Gust
km/h
Spd
kts
Gust
kts
28/11:30pm 13.7 9.3 6.7 62 3.4 ENE 19 22 10 12 1027.2 - 0.0
28/11:00pm 13.6 9.2 7.3 65 3.1 ENE 20 24 11 13 1027.1 - 0.0
28/10:30pm 14.7 9.8 4.9 52 4.6 ENE 20 24 11 13 1027.3 - 0.0
28/10:00pm 14.6 9.7 4.2 49 4.8 ENE 19 22 10 12 1027.5 - 0.0
28/09:30pm 14.4 9.9 4.2 50 4.7 ENE 17 19 9 10 1027.6 - 0.0
28/09:00pm 14.7 9.8 4.3 49 4.8 ENE 19 20 10 11 1027.6 1027.8 0.0
28/08:30pm 13.5 9.1 4.9 56 4.0 E 17 19 9 10 1027.7 - 0.0
28/08:00pm 12.2 8.8 5.8 65 3.0 E 13 13 7 7 1027.5 - 0.0
28/07:30pm 12.6 8.1 6.0 64 3.1 ESE 19 20 10 11 1027.3 - 0.0
28/07:00pm 12.2 8.2 6.5 68 2.7 ESE 17 19 9 10 1027.3 - 0.0
28/06:30pm 12.6 8.6 6.5 66 2.9 E 17 17 9 9 1027.0 - 0.0
28/06:00pm 13.6 10.1 7.0 64 3.2 E 15 17 8 9 1026.9 1027.2 0.0
28/05:30pm 15.6 12.0 6.6 55 4.4 NE 15 19 8 10 1026.6 - 0.0
28/05:00pm 16.4 13.2 6.9 53 4.7 ENE 13 17 7 9 1026.5 - 0.0
28/04:30pm 17.1 14.0 7.3 52 4.9 NE 13 19 7 10 1026.4 - 0.0
28/04:00pm 17.2 13.6 6.7 50 5.2 NE 15 20 8 11 1026.4 - 0.0
28/03:30pm 17.9 14.3 6.9 48 5.5 NE 15 19 8 10 1026.5 - 0.0
28/03:00pm 17.7 14.4 8.1 53 4.9 NE 15 20 8 11 1026.6 1026.8 0.0
28/02:30pm 17.4 13.6 8.9 57 4.4 NE 19 24 10 13 1026.4 - 0.0
28/02:00pm 17.0 13.0 8.4 57 4.4 NE 19 26 10 14 1026.7 - 0.0
28/01:30pm 17.5 13.5 8.3 54 4.7 NE 19 28 10 15 1026.7 - 0.0
28/01:00pm 18.2 14.5 8.1 51 5.2 NE 17 20 9 11 1027.0 - 0.0
28/12:30pm 17.5 13.7 7.6 52 5.0 NE 17 24 9 13 1027.3 - 0.0
28/12:00pm 17.5 13.5 8.1 54 4.8 NE 19 24 10 13 1027.8 1028.0 0.0
28/11:30am 17.3 13.3 8.3 55 4.6 NE 19 24 10 13 1028.0 - 0.0
28/11:00am 17.3 13.3 8.1 54 4.7 NE 19 26 10 14 1028.1 - 0.0
28/10:30am 17.0 12.7 7.9 55 4.6 NE 20 28 11 15 1028.1 - 0.0
28/10:00am 16.6 11.9 7.7 55 4.5 NE 22 28 12 15 1028.2 - 0.0
28/09:30am 16.4 12.0 7.6 56 4.4 NE 20 28 11 15 1028.3 - 0.0
28/09:00am 16.0 11.6 7.4 56 4.3 NE 20 28 11 15 1028.1 1028.3 0.0
28/08:30am 15.6 11.8 7.6 59 4.0 NE 17 24 9 13 1028.1 - 0.0
28/08:00am 14.8 10.9 7.3 61 3.7 ENE 17 20 9 11 1027.9 - 0.0
28/07:30am 13.4 8.9 7.0 65 3.1 ENE 20 28 11 15 1027.5 - 0.0
28/07:00am 12.8 7.7 6.0 63 3.2 ENE 22 30 12 16 1027.1 - 0.0
28/06:30am 12.7 8.0 5.9 63 3.2 ENE 20 24 11 13 1026.9 - 0.0
28/06:00am 12.7 8.0 5.9 63 3.2 ENE 20 26 11 14 1026.8 1027.0 0.0
28/05:30am 12.7 7.7 4.4 57 3.8 ENE 20 26 11 14 1026.6 - 0.0
28/05:00am 12.8 7.7 4.2 56 3.9 ENE 20 26 11 14 1026.5 - 0.0
28/04:30am 12.9 7.3 3.5 53 4.2 ENE 22 26 12 14 1026.5 - 0.0
28/04:00am 12.9 7.8 4.1 55 4.0 ENE 20 26 11 14 1026.5 - 0.0
28/03:30am 13.0 7.5 4.2 55 4.0 ENE 22 28 12 15 1026.4 - 0.0
28/03:00am 13.1 7.7 4.4 55 4.0 ENE 22 28 12 15 1026.6 1026.8 0.0
28/02:30am 12.8 7.6 5.3 60 3.5 ENE 22 26 12 14 1026.7 - 0.0
28/02:00am 13.1 7.6 5.7 61 3.5 NE 24 28 13 15 1026.8 - 0.0
28/01:30am 13.3 8.3 4.6 55 4.0 ENE 20 24 11 13 1027.0 - 0.0
28/01:00am 13.4 8.5 4.2 53 4.2 ENE 19 24 10 13 1027.2 - 0.0
28/12:30am 13.1 8.3 4.6 56 3.9 ENE 19 20 10 11 1027.3 - 0.0
28/12:00am 12.9 8.6 5.2 59 3.6 ENE 17 20 9 11 1027.6 1027.8 0.0
 
Date/Time
CST
Temp
°C
App
Temp
°C
Dew
Point
Rel
Hum
%
Delta-T
°C
Wind Press
QNH
hPa
Press
MSL
hPa
Rain
since 9 am
mm
Dir
 
Spd
km/h
Gust
km/h
Spd
kts
Gust
kts
27/11:30pm 12.6 8.4 5.8 63 3.2 ENE 17 20 9 11 1027.7 - 0.0
27/11:00pm 10.7 7.5 6.7 76 1.9 E 13 17 7 9 1027.7 - 0.0
27/10:30pm 12.2 7.9 7.2 71 2.4 E 19 20 10 11 1027.7 - 0.0
27/10:00pm 11.4 7.6 7.7 78 1.8 E 17 19 9 10 1027.7 - 0.0
27/09:30pm 10.6 7.8 8.6 87 1.0 E 13 15 7 8 1027.7 - 0.0
27/09:00pm 11.1 8.3 8.7 85 1.2 E 13 17 7 9 1027.6 1027.8 0.0
27/08:30pm 11.4 7.5 8.8 84 1.3 E 19 20 10 11 1027.2 - 0.0
27/08:00pm 11.1 7.7 9.3 89 0.9 ESE 17 19 9 10 1027.5 - 0.0
27/07:30pm 11.4 8.4 9.2 86 1.1 ESE 15 17 8 9 1027.0 - 0.0
27/07:00pm 11.8 8.5 7.9 77 1.9 SE 15 15 8 8 1026.6 - 0.0
27/06:30pm 11.7 8.5 4.9 63 3.1 SSE 11 15 6 8 1026.5 - 0.0
27/06:00pm 13.2 9.4 4.0 53 4.2 ENE 13 15 7 8 1026.0 1026.2 0.0

Other Formats:

Comma delimited format used in spreadsheet applications
http://www.bom.gov.au/fwo/IDS60801/IDS60801.95805.axf

JavaScript Object Notation format (JSON) in row-major order
http://www.bom.gov.au/fwo/IDS60801/IDS60801.95805.json